createdAt,value
2022-10-30T00:01:53.640Z,25.60
2022-10-30T00:04:20.835Z,24.83
2022-10-30T00:06:48.481Z,22.20
2022-10-30T00:09:15.778Z,31.65
2022-10-30T00:11:42.954Z,29.70
2022-10-30T00:14:10.096Z,26.67
2022-10-30T00:16:37.180Z,27.23
2022-10-30T00:19:04.580Z,24.20
2022-10-30T00:21:31.754Z,24.10
2022-10-30T00:23:58.822Z,32.17
2022-10-30T00:26:26.434Z,25.23
2022-10-30T00:28:54.918Z,27.40
2022-10-30T00:31:22.723Z,24.23
2022-10-30T00:33:53.811Z,25.80
2022-10-30T00:36:22.082Z,24.90
2022-10-30T00:38:49.239Z,23.85
2022-10-30T00:41:21.321Z,24.85
2022-10-30T00:43:48.980Z,27.98
2022-10-30T00:46:28.440Z,29.55
2022-10-30T00:49:05.965Z,27.95
2022-10-30T00:51:33.539Z,27.42
2022-10-30T00:54:03.388Z,25.60
2022-10-30T00:56:30.732Z,26.73
2022-10-30T00:59:01.601Z,25.80
2022-10-30T01:01:29.847Z,25.75
2022-10-30T01:03:58.403Z,26.02
2022-10-30T01:06:26.439Z,26.58
2022-10-30T01:08:58.781Z,26.50
2022-10-30T01:11:27.380Z,33.53
2022-10-30T01:13:57.049Z,26.35
2022-10-30T01:16:36.294Z,31.55
2022-10-30T01:19:12.117Z,26.83
2022-10-30T01:21:54.295Z,24.33
2022-10-30T01:24:55.288Z,24.40
2022-10-30T01:28:01.908Z,30.05
2022-10-30T01:30:59.642Z,20.42
2022-10-30T01:33:33.265Z,26.50
2022-10-30T01:36:26.217Z,26.60
2022-10-30T01:39:03.121Z,29.48
2022-10-30T01:41:30.290Z,29.80
2022-10-30T01:44:02.010Z,28.92
2022-10-30T01:46:39.813Z,30.30
2022-10-30T01:49:16.713Z,26.10
2022-10-30T01:51:46.504Z,22.48
2022-10-30T01:54:33.507Z,22.67
2022-10-30T01:57:19.037Z,27.13
2022-10-30T01:59:51.344Z,25.40
2022-10-30T02:02:18.819Z,26.48
2022-10-30T02:04:46.081Z,21.73
2022-10-30T02:07:13.293Z,24.38
2022-10-30T02:09:40.392Z,23.73
2022-10-30T02:12:08.175Z,26.65
2022-10-30T02:14:41.122Z,24.50
2022-10-30T02:17:08.555Z,21.27
2022-10-30T02:19:35.623Z,22.42
2022-10-30T02:22:02.969Z,24.08
2022-10-30T02:24:30.636Z,23.77
2022-10-30T02:26:57.923Z,25.98
2022-10-30T02:29:25.117Z,28.92
2022-10-30T02:31:52.248Z,25.73
2022-10-30T02:34:19.968Z,22.92
2022-10-30T02:36:47.330Z,22.70
2022-10-30T02:39:14.523Z,24.65
2022-10-30T02:41:41.661Z,23.98
2022-10-30T02:44:08.812Z,21.23
2022-10-30T02:46:36.021Z,21.30
2022-10-30T02:49:03.302Z,26.30
2022-10-30T02:51:33.547Z,25.92
2022-10-30T02:54:01.415Z,28.50
2022-10-30T02:56:28.591Z,27.75
2022-10-30T02:58:56.345Z,24.85
2022-10-30T03:01:23.718Z,27.90
2022-10-30T03:03:51.288Z,24.67
2022-10-30T03:06:18.589Z,24.40
2022-10-30T03:08:45.791Z,22.38
2022-10-30T03:11:15.485Z,23.95
2022-10-30T03:13:43.799Z,26.45
2022-10-30T03:16:23.357Z,21.83
2022-10-30T03:18:51.876Z,27.02
2022-10-30T03:21:21.445Z,27.17
2022-10-30T03:23:50.552Z,25.98
2022-10-30T03:26:18.297Z,21.95
2022-10-30T03:28:45.469Z,22.13
2022-10-30T03:31:15.158Z,22.92
2022-10-30T03:33:42.464Z,23.38
2022-10-30T03:36:11.397Z,21.55
2022-10-30T03:38:38.890Z,21.05
2022-10-30T03:41:06.231Z,31.02
2022-10-30T03:43:33.723Z,29.15
2022-10-30T03:46:00.924Z,28.17
2022-10-30T03:48:29.165Z,24.92
2022-10-30T03:50:58.125Z,23.98
2022-10-30T03:53:26.408Z,24.98
2022-10-30T03:55:57.875Z,26.95
2022-10-30T03:58:25.810Z,23.27
2022-10-30T04:00:53.137Z,25.73
2022-10-30T04:03:20.312Z,25.58
2022-10-30T04:05:50.955Z,23.67
2022-10-30T04:08:18.316Z,28.33
2022-10-30T04:10:46.810Z,23.42
2022-10-30T04:13:15.845Z,27.20
2022-10-30T04:15:43.094Z,22.08
2022-10-30T04:18:11.583Z,21.10
2022-10-30T04:20:38.689Z,33.45
2022-10-30T04:23:07.064Z,27.25
2022-10-30T04:25:35.390Z,24.40
2022-10-30T04:28:03.852Z,23.25
2022-10-30T04:30:35.146Z,21.20
2022-10-30T04:33:04.146Z,21.77
2022-10-30T04:35:33.352Z,27.10
2022-10-30T04:38:01.064Z,24.17
2022-10-30T04:40:31.035Z,26.90
2022-10-30T04:42:58.854Z,25.00
2022-10-30T04:45:26.215Z,18.20
2022-10-30T04:47:53.467Z,23.98
2022-10-30T04:50:20.699Z,20.50
2022-10-30T04:52:47.853Z,19.73
2022-10-30T04:55:15.019Z,19.90
2022-10-30T04:57:42.168Z,21.23
2022-10-30T05:00:10.719Z,16.63
2022-10-30T05:02:38.155Z,19.85
2022-10-30T05:05:05.575Z,19.77
2022-10-30T05:07:32.697Z,22.25
2022-10-30T05:09:59.868Z,20.80
2022-10-30T05:12:27.037Z,22.67
2022-10-30T05:14:54.218Z,23.70
2022-10-30T05:17:21.669Z,25.33
2022-10-30T05:19:48.902Z,18.48
2022-10-30T05:22:16.088Z,22.50
2022-10-30T05:24:43.259Z,25.58
2022-10-30T05:27:10.369Z,21.77
2022-10-30T05:29:37.557Z,28.27
2022-10-30T05:32:04.923Z,25.33
2022-10-30T05:34:32.112Z,29.75
2022-10-30T05:36:59.286Z,19.02
2022-10-30T05:39:26.401Z,21.30
2022-10-30T05:41:53.674Z,18.15
2022-10-30T05:44:34.277Z,18.17
2022-10-30T05:47:08.050Z,19.52
2022-10-30T05:49:35.209Z,21.48
2022-10-30T05:52:02.310Z,19.75
2022-10-30T05:54:29.423Z,21.45
2022-10-30T05:56:57.947Z,21.50
2022-10-30T05:59:25.111Z,18.63
2022-10-30T06:01:52.267Z,22.52
2022-10-30T06:04:19.402Z,24.52
2022-10-30T06:06:46.585Z,19.67
2022-10-30T06:09:13.753Z,22.48
2022-10-30T06:11:40.844Z,23.00
2022-10-30T06:14:07.976Z,21.38
2022-10-30T06:16:35.115Z,20.40
2022-10-30T06:19:02.249Z,18.70
2022-10-30T06:21:29.369Z,23.00
2022-10-30T06:23:56.551Z,21.45
2022-10-30T06:26:23.742Z,19.05
2022-10-30T06:28:50.891Z,16.48
2022-10-30T06:31:18.031Z,26.02
2022-10-30T06:33:45.187Z,21.23
2022-10-30T06:36:12.377Z,21.58
2022-10-30T06:38:39.514Z,20.38
2022-10-30T06:41:06.995Z,21.50
2022-10-30T06:43:34.382Z,20.42
2022-10-30T06:46:01.606Z,21.27
2022-10-30T06:48:28.755Z,20.33
2022-10-30T06:51:00.102Z,18.73
2022-10-30T06:53:27.280Z,21.73
2022-10-30T06:56:03.909Z,18.45
2022-10-30T06:58:31.188Z,22.17
2022-10-30T07:01:00.812Z,19.50
2022-10-30T07:03:28.172Z,21.55
2022-10-30T07:05:55.275Z,18.80
2022-10-30T07:08:22.452Z,20.65
2022-10-30T07:10:49.622Z,18.13
2022-10-30T07:13:17.082Z,18.90
2022-10-30T07:15:44.424Z,20.90
2022-10-30T07:18:11.592Z,20.23
2022-10-30T07:20:38.723Z,17.05
2022-10-30T07:23:05.933Z,16.70
2022-10-30T07:25:33.141Z,17.02
2022-10-30T07:28:02.008Z,23.42
2022-10-30T07:30:29.629Z,20.80
2022-10-30T07:33:01.993Z,16.42
2022-10-30T07:35:30.181Z,20.63
2022-10-30T07:38:05.503Z,19.67
2022-10-30T07:40:33.420Z,15.02
2022-10-30T07:43:02.432Z,23.92
2022-10-30T07:45:30.042Z,16.10
2022-10-30T07:47:57.834Z,20.23
2022-10-30T07:50:25.427Z,18.60
2022-10-30T07:52:52.564Z,23.35
2022-10-30T07:55:19.701Z,26.65
2022-10-30T07:57:47.090Z,16.85
2022-10-30T08:00:15.283Z,17.85
2022-10-30T08:02:42.637Z,21.08
2022-10-30T08:05:10.198Z,17.67
2022-10-30T08:07:38.166Z,18.38
2022-10-30T08:10:06.665Z,21.10
2022-10-30T08:12:34.704Z,20.10
2022-10-30T08:15:01.831Z,23.60
2022-10-30T08:17:28.986Z,25.42
2022-10-30T08:19:57.197Z,21.58
2022-10-30T08:22:24.830Z,19.25
2022-10-30T08:24:52.204Z,15.48
2022-10-30T08:27:19.418Z,22.08
2022-10-30T08:29:46.906Z,20.30
2022-10-30T08:32:14.018Z,19.25
2022-10-30T08:34:41.311Z,17.83
2022-10-30T08:37:08.473Z,25.95
2022-10-30T08:39:35.670Z,19.05
2022-10-30T08:42:02.830Z,22.08
2022-10-30T08:44:30.003Z,21.50
2022-10-30T08:46:57.129Z,18.00
2022-10-30T08:49:24.219Z,21.75
2022-10-30T08:51:51.369Z,20.40
2022-10-30T08:54:18.531Z,17.77
2022-10-30T08:56:45.666Z,23.20
2022-10-30T08:59:17.122Z,19.17
2022-10-30T09:01:47.737Z,19.35
2022-10-30T09:04:14.987Z,26.00
2022-10-30T09:06:42.155Z,15.63
2022-10-30T09:09:09.324Z,22.35
2022-10-30T09:11:36.467Z,16.50
2022-10-30T09:14:03.564Z,20.45
2022-10-30T09:16:30.692Z,17.83
2022-10-30T09:18:57.874Z,19.17
2022-10-30T09:21:24.955Z,16.95
2022-10-30T09:23:52.109Z,16.67
2022-10-30T09:26:20.844Z,18.35
2022-10-30T09:28:48.104Z,22.13
2022-10-30T09:31:15.275Z,16.50
2022-10-30T09:33:42.413Z,12.75
2022-10-30T09:36:09.551Z,12.30
2022-10-30T09:38:36.647Z,15.38
2022-10-30T09:41:22.104Z,21.83
2022-10-30T09:43:52.027Z,23.00
2022-10-30T09:46:49.081Z,12.23
2022-10-30T09:49:38.633Z,16.48
2022-10-30T09:52:22.055Z,16.55
2022-10-30T09:55:10.967Z,16.33
2022-10-30T09:58:05.343Z,19.33
2022-10-30T10:00:37.202Z,15.70
2022-10-30T10:03:20.978Z,16.67
2022-10-30T10:05:56.463Z,16.65
2022-10-30T10:08:32.948Z,15.95
2022-10-30T10:11:04.219Z,15.63
2022-10-30T10:13:53.394Z,22.13
2022-10-30T10:16:21.423Z,18.80
2022-10-30T10:19:20.834Z,16.55
2022-10-30T10:22:17.940Z,22.75
2022-10-30T10:24:47.502Z,20.00
2022-10-30T10:27:27.683Z,16.02
2022-10-30T10:30:03.986Z,16.30
2022-10-30T10:33:01.046Z,18.70
2022-10-30T10:35:56.184Z,19.13
2022-10-30T10:38:47.938Z,18.95
2022-10-30T10:41:27.557Z,25.23
2022-10-30T10:44:09.242Z,20.13
2022-10-30T10:47:06.903Z,15.27
2022-10-30T10:49:57.778Z,26.45
2022-10-30T10:52:30.889Z,15.50
2022-10-30T10:55:02.854Z,16.88
2022-10-30T10:57:33.844Z,14.20
2022-10-30T11:00:17.447Z,16.20
2022-10-30T11:02:54.589Z,17.40
2022-10-30T11:05:34.796Z,15.65
2022-10-30T11:08:18.663Z,17.92
2022-10-30T11:10:52.256Z,18.08
2022-10-30T11:13:19.382Z,10.35
2022-10-30T11:15:58.178Z,13.50
2022-10-30T11:18:25.347Z,21.08
2022-10-30T11:21:09.183Z,15.70
2022-10-30T11:23:41.853Z,14.77
2022-10-30T11:26:17.673Z,15.35
2022-10-30T11:28:49.006Z,19.10
2022-10-30T11:31:34.846Z,17.30
2022-10-30T11:34:14.252Z,14.65
2022-10-30T11:36:41.781Z,12.07
2022-10-30T11:39:19.285Z,14.15
2022-10-30T11:41:58.067Z,12.00
2022-10-30T11:44:29.381Z,19.98
2022-10-30T11:46:56.745Z,16.42
2022-10-30T11:49:27.533Z,13.05
2022-10-30T11:51:54.794Z,10.63
2022-10-30T11:54:22.073Z,11.98
2022-10-30T11:56:50.270Z,11.40
2022-10-30T11:59:20.535Z,11.48
2022-10-30T12:02:23.682Z,14.80
2022-10-30T12:04:51.954Z,14.57
2022-10-30T12:07:33.197Z,16.83
2022-10-30T12:10:01.825Z,13.73
2022-10-30T12:12:31.829Z,11.68
2022-10-30T12:15:14.071Z,12.45
2022-10-30T12:17:41.387Z,18.25
2022-10-30T12:20:14.721Z,11.20
2022-10-30T12:22:42.097Z,10.90
2022-10-30T12:25:30.437Z,18.35
2022-10-30T12:28:05.389Z,11.55
2022-10-30T12:30:35.934Z,15.95
2022-10-30T12:33:17.606Z,20.48
2022-10-30T12:35:50.306Z,13.60
2022-10-30T12:38:28.512Z,9.05
2022-10-30T12:41:09.997Z,13.98
2022-10-30T12:43:37.091Z,14.60
2022-10-30T12:46:19.815Z,15.98
2022-10-30T12:48:55.263Z,19.42
2022-10-30T12:51:41.195Z,11.50
2022-10-30T12:54:26.547Z,10.20
2022-10-30T12:57:13.519Z,20.20
2022-10-30T13:00:03.983Z,17.98
2022-10-30T13:02:44.302Z,12.70
2022-10-30T13:05:29.387Z,19.05
2022-10-30T13:08:04.779Z,12.65
2022-10-30T13:10:35.330Z,15.45
2022-10-30T13:13:09.169Z,12.38
2022-10-30T13:15:40.890Z,19.50
2022-10-30T13:18:16.847Z,13.05
2022-10-30T13:20:48.915Z,12.88
2022-10-30T13:23:25.065Z,15.43
2022-10-30T13:26:07.480Z,11.57
2022-10-30T13:28:45.160Z,15.70
2022-10-30T13:31:38.160Z,11.98
2022-10-30T13:34:30.229Z,15.90
2022-10-30T13:37:08.972Z,16.48
2022-10-30T13:39:42.654Z,17.67
2022-10-30T13:42:17.944Z,14.70
2022-10-30T13:45:02.013Z,11.52
2022-10-30T13:47:37.400Z,22.47
2022-10-30T13:50:13.315Z,16.77
2022-10-30T13:52:44.617Z,13.15
2022-10-30T13:55:25.731Z,15.80
2022-10-30T13:58:03.892Z,13.13
2022-10-30T14:00:33.873Z,21.40
2022-10-30T14:03:14.074Z,19.70
2022-10-30T14:06:26.194Z,18.95
2022-10-30T14:09:11.800Z,14.15
2022-10-30T14:11:38.932Z,14.60
2022-10-30T14:14:24.225Z,17.13
2022-10-30T14:20:13.601Z,18.67
2022-10-30T14:22:41.718Z,15.50
2022-10-30T14:25:13.935Z,15.70
2022-10-30T14:27:41.099Z,21.25
2022-10-30T14:30:19.505Z,16.33
2022-10-30T14:32:51.641Z,10.60
2022-10-30T14:35:34.423Z,16.02
2022-10-30T14:38:10.229Z,18.95
2022-10-30T14:40:40.927Z,13.48
2022-10-30T14:43:28.977Z,14.18
2022-10-30T14:46:01.875Z,19.25
2022-10-30T14:48:38.163Z,16.73
2022-10-30T14:51:19.608Z,14.73
2022-10-30T14:54:00.559Z,14.27
2022-10-30T14:56:38.695Z,13.70
2022-10-30T14:59:14.940Z,14.40
2022-10-30T15:02:12.952Z,14.25
2022-10-30T15:04:58.606Z,17.67
2022-10-30T15:07:47.670Z,15.43
2022-10-30T15:10:28.764Z,16.13
2022-10-30T15:13:21.224Z,19.25
2022-10-30T15:16:02.097Z,17.30
2022-10-30T15:18:30.708Z,16.77
2022-10-30T15:21:05.806Z,16.77
2022-10-30T15:23:34.654Z,17.02
2022-10-30T15:26:09.249Z,11.30
2022-10-30T15:28:38.536Z,12.55
2022-10-30T15:31:08.054Z,17.88
2022-10-30T15:33:37.583Z,15.75
2022-10-30T15:36:05.497Z,13.35
2022-10-30T15:38:32.694Z,15.80
2022-10-30T15:41:02.609Z,18.67
2022-10-30T15:43:34.376Z,15.13
2022-10-30T15:46:02.754Z,17.02
2022-10-30T15:48:36.921Z,17.00
2022-10-30T15:51:05.848Z,17.13
2022-10-30T15:53:45.586Z,13.60
2022-10-30T15:56:24.600Z,12.63
2022-10-30T15:58:54.418Z,16.98
2022-10-30T16:01:32.730Z,17.65
2022-10-30T16:04:00.411Z,15.88
2022-10-30T16:06:30.100Z,13.88
2022-10-30T16:08:57.765Z,12.68
2022-10-30T16:11:26.067Z,17.63
2022-10-30T16:13:53.529Z,24.92
2022-10-30T16:16:24.929Z,14.82
2022-10-30T16:18:52.127Z,15.85
2022-10-30T16:21:22.097Z,20.20
2022-10-30T16:23:51.872Z,19.55
2022-10-30T16:26:45.567Z,17.42
2022-10-30T16:29:18.499Z,17.42
2022-10-30T16:31:49.952Z,24.05
2022-10-30T16:34:31.874Z,21.67
2022-10-30T16:36:59.422Z,18.83
2022-10-30T16:39:26.974Z,19.63
2022-10-30T16:41:57.163Z,23.75
2022-10-30T16:44:28.130Z,17.65
2022-10-30T16:47:07.018Z,19.92
2022-10-30T16:49:35.065Z,17.88
2022-10-30T16:52:06.768Z,14.90
2022-10-30T16:54:38.633Z,24.60
2022-10-30T16:57:13.469Z,19.25
2022-10-30T16:59:46.274Z,19.88
2022-10-30T17:02:19.548Z,20.38
2022-10-30T17:04:52.490Z,20.58
2022-10-30T17:07:25.621Z,17.15
2022-10-30T17:09:55.653Z,21.40
2022-10-30T17:12:25.305Z,18.35
2022-10-30T17:15:12.843Z,24.77
2022-10-30T17:17:41.349Z,27.65
2022-10-30T17:20:18.820Z,23.00
2022-10-30T17:22:47.755Z,24.75
2022-10-30T17:25:37.767Z,25.23
2022-10-30T17:28:05.488Z,28.05
2022-10-30T17:30:34.566Z,27.08
2022-10-30T17:33:23.077Z,23.25
2022-10-30T17:35:50.632Z,23.88
2022-10-30T17:38:18.217Z,22.85
2022-10-30T17:40:45.448Z,26.65
2022-10-30T17:43:16.622Z,25.25
2022-10-30T17:45:44.363Z,26.42
2022-10-30T17:48:16.504Z,25.13
2022-10-30T17:50:44.463Z,30.35
2022-10-30T17:53:21.783Z,29.13
2022-10-30T17:55:55.931Z,26.50
2022-10-30T17:58:24.008Z,32.40
2022-10-30T18:00:51.269Z,28.08
2022-10-30T18:03:18.490Z,30.77
2022-10-30T18:05:46.328Z,32.63
2022-10-30T18:08:13.487Z,39.25
2022-10-30T18:10:40.614Z,32.92
2022-10-30T18:13:10.067Z,31.23
2022-10-30T18:15:40.833Z,37.78
2022-10-30T18:18:08.027Z,31.77
2022-10-30T18:20:35.189Z,29.73
2022-10-30T18:23:03.072Z,31.10
2022-10-30T18:25:36.091Z,32.17
2022-10-30T18:28:03.270Z,34.30
2022-10-30T18:30:30.495Z,33.20
2022-10-30T18:32:58.215Z,34.25
2022-10-30T18:35:30.211Z,29.73
2022-10-30T18:37:57.838Z,35.78
2022-10-30T18:40:25.715Z,35.58
2022-10-30T18:42:52.909Z,29.55
2022-10-30T18:45:33.691Z,31.30
2022-10-30T18:48:01.133Z,27.95
2022-10-30T18:50:32.560Z,33.20
2022-10-30T18:53:00.779Z,33.67
2022-10-30T18:55:35.642Z,35.47
2022-10-30T18:58:03.964Z,37.42
2022-10-30T19:00:45.104Z,27.98
2022-10-30T19:03:18.962Z,38.25
2022-10-30T19:05:47.926Z,31.52
2022-10-30T19:08:15.647Z,32.40
2022-10-30T19:10:45.182Z,37.10
2022-10-30T19:13:12.887Z,33.30
2022-10-30T19:15:43.903Z,28.67
2022-10-30T19:18:11.456Z,30.13
2022-10-30T19:20:58.865Z,39.65
2022-10-30T19:23:25.992Z,32.25
2022-10-30T19:25:53.354Z,35.22
2022-10-30T19:28:21.501Z,26.92
2022-10-30T19:30:54.697Z,26.58
2022-10-30T19:33:23.534Z,35.03
2022-10-30T19:35:55.358Z,31.58
2022-10-30T19:38:23.255Z,35.03
2022-10-30T19:40:50.508Z,26.80
2022-10-30T19:43:17.663Z,35.38
2022-10-30T19:45:44.895Z,31.02
2022-10-30T19:48:24.888Z,35.60
2022-10-30T19:51:01.605Z,34.25
2022-10-30T19:53:28.702Z,39.28
2022-10-30T19:55:55.862Z,29.38
2022-10-30T19:58:25.926Z,32.28
2022-10-30T20:00:56.516Z,32.55
2022-10-30T20:03:23.717Z,29.98
2022-10-30T20:05:50.875Z,27.40
2022-10-30T20:08:23.229Z,28.88
2022-10-30T20:10:51.498Z,34.22
2022-10-30T20:13:20.285Z,36.38
2022-10-30T20:15:47.598Z,30.30
2022-10-30T20:18:20.078Z,35.75
2022-10-30T20:20:52.440Z,31.73
2022-10-30T20:23:20.267Z,33.95
2022-10-30T20:25:48.645Z,45.92
2022-10-30T20:28:25.092Z,32.65
2022-10-30T20:30:53.293Z,35.65
2022-10-30T20:33:21.493Z,30.98
2022-10-30T20:35:50.226Z,34.75
2022-10-30T20:38:22.129Z,34.35
2022-10-30T20:40:49.257Z,38.45
2022-10-30T20:43:18.314Z,34.50
2022-10-30T20:45:45.800Z,27.85
2022-10-30T20:48:13.237Z,31.27
2022-10-30T20:50:41.167Z,36.92
2022-10-30T20:53:12.462Z,32.33
2022-10-30T20:55:40.763Z,27.63
2022-10-30T20:58:07.972Z,30.45
2022-10-30T21:00:35.266Z,31.80
2022-10-30T21:03:03.383Z,37.47
2022-10-30T21:05:48.835Z,37.03
2022-10-30T21:08:16.132Z,33.92
2022-10-30T21:10:43.251Z,36.22
2022-10-30T21:13:11.539Z,28.75
2022-10-30T21:15:40.323Z,33.67
2022-10-30T21:18:07.492Z,26.27
2022-10-30T21:20:34.615Z,33.45
2022-10-30T21:23:01.911Z,32.78
2022-10-30T21:25:29.594Z,34.28
2022-10-30T21:27:57.056Z,36.17
2022-10-30T21:30:24.269Z,32.00
2022-10-30T21:32:51.399Z,33.17
2022-10-30T21:35:18.714Z,33.83
2022-10-30T21:37:45.875Z,45.60
2022-10-30T21:40:13.174Z,39.53
2022-10-30T21:42:40.342Z,39.75
2022-10-30T21:45:08.405Z,42.17
2022-10-30T21:47:35.560Z,37.15
2022-10-30T21:50:06.285Z,32.00
2022-10-30T21:52:36.474Z,35.42
2022-10-30T21:55:03.770Z,29.30
2022-10-30T21:57:30.972Z,28.58
2022-10-30T22:00:00.176Z,33.65
2022-10-30T22:02:30.646Z,33.88
2022-10-30T22:04:57.717Z,34.00
2022-10-30T22:07:24.865Z,33.10
2022-10-30T22:09:53.561Z,31.60
2022-10-30T22:12:20.754Z,32.92
2022-10-30T22:14:47.924Z,33.17
2022-10-30T22:17:15.093Z,33.47
2022-10-30T22:19:43.513Z,36.45
2022-10-30T22:22:11.189Z,33.83
2022-10-30T22:24:38.406Z,28.75
2022-10-30T22:27:05.587Z,32.05
2022-10-30T22:29:32.794Z,34.55
2022-10-30T22:31:59.893Z,39.58
2022-10-30T22:34:27.013Z,41.38
2022-10-30T22:36:54.099Z,31.50
2022-10-30T22:39:21.275Z,35.30
2022-10-30T22:41:48.404Z,28.00
2022-10-30T22:44:19.635Z,29.95
2022-10-30T22:46:46.957Z,30.85
2022-10-30T22:49:14.364Z,34.20
2022-10-30T22:51:41.516Z,30.75
2022-10-30T22:54:12.333Z,30.48
2022-10-30T22:56:40.210Z,34.63
2022-10-30T22:59:10.787Z,27.67
2022-10-30T23:01:38.902Z,31.02
2022-10-30T23:04:07.126Z,30.92
2022-10-30T23:06:34.982Z,33.17
2022-10-30T23:09:06.206Z,28.38
2022-10-30T23:11:33.353Z,27.52
2022-10-30T23:14:00.672Z,31.95
2022-10-30T23:16:28.263Z,28.92
2022-10-30T23:18:56.879Z,33.55
2022-10-30T23:21:25.983Z,31.23
2022-10-30T23:23:53.585Z,27.33
2022-10-30T23:26:24.715Z,29.05
2022-10-30T23:28:53.268Z,34.05
2022-10-30T23:31:25.628Z,35.42
2022-10-30T23:33:55.081Z,29.27
2022-10-30T23:36:22.660Z,30.35
2022-10-30T23:38:58.000Z,32.15
2022-10-30T23:41:27.861Z,30.88
2022-10-30T23:43:59.498Z,32.35
2022-10-30T23:46:26.861Z,31.30
2022-10-30T23:48:54.414Z,31.90
2022-10-30T23:51:21.771Z,27.73
2022-10-30T23:53:49.123Z,33.05
2022-10-30T23:56:16.806Z,30.50
2022-10-30T23:58:45.224Z,31.42
